createdAt,value
2024-04-12T00:01:21.299Z,14.40
2024-04-12T00:03:54.024Z,14.50
2024-04-12T00:06:21.916Z,14.20
2024-04-12T00:08:50.714Z,14.00
2024-04-12T00:11:20.845Z,13.80
2024-04-12T00:13:53.575Z,14.40
2024-04-12T00:16:27.534Z,14.70
2024-04-12T00:19:08.420Z,14.80
2024-04-12T00:21:39.412Z,13.80
2024-04-12T00:24:13.640Z,13.90
2024-04-12T00:26:44.514Z,13.90
2024-04-12T00:29:34.937Z,14.80
2024-04-12T00:32:05.113Z,13.90
2024-04-12T00:34:40.648Z,14.70
2024-04-12T00:37:14.206Z,13.60
2024-04-12T00:39:42.582Z,14.90
2024-04-12T00:42:14.544Z,15.50
2024-04-12T00:44:43.493Z,14.00
2024-04-12T00:47:21.061Z,14.00
2024-04-12T00:49:50.693Z,13.40
2024-04-12T00:52:24.092Z,14.20
2024-04-12T00:55:04.390Z,14.30
2024-04-12T00:57:39.536Z,14.30
2024-04-12T01:00:12.913Z,14.80
2024-04-12T01:02:44.069Z,15.10
2024-04-12T01:05:19.238Z,15.10
2024-04-12T01:07:52.417Z,13.70
2024-04-12T01:10:31.787Z,14.40
2024-04-12T01:13:03.613Z,14.30
2024-04-12T01:15:36.999Z,13.60
2024-04-12T01:18:12.707Z,13.00
2024-04-12T01:20:44.631Z,15.50
2024-04-12T01:23:16.799Z,13.60
2024-04-12T01:25:46.479Z,13.10
2024-04-12T01:28:17.162Z,14.60
2024-04-12T01:30:47.352Z,14.70
2024-04-12T01:33:16.271Z,12.50
2024-04-12T01:35:45.889Z,13.50
2024-04-12T01:38:21.054Z,14.20
2024-04-12T01:41:00.351Z,12.50
2024-04-12T01:43:32.362Z,13.40
2024-04-12T01:46:00.287Z,14.30
2024-04-12T01:48:30.271Z,13.30
2024-04-12T01:50:58.622Z,13.30
2024-04-12T01:53:28.226Z,12.60
2024-04-12T01:55:56.272Z,13.20
2024-04-12T01:58:24.150Z,13.00
2024-04-12T02:00:52.963Z,13.70
2024-04-12T02:03:22.652Z,12.80
2024-04-12T02:05:50.967Z,12.80
2024-04-12T02:08:20.029Z,12.60
2024-04-12T02:10:49.558Z,12.60
2024-04-12T02:13:19.043Z,13.00
2024-04-12T02:15:49.901Z,13.00
2024-04-12T02:18:21.271Z,12.40
2024-04-12T02:20:52.623Z,12.90
2024-04-12T02:23:20.843Z,12.50
2024-04-12T02:25:50.197Z,13.40
2024-04-12T02:28:19.084Z,13.20
2024-04-12T02:30:55.938Z,12.10
2024-04-12T02:33:28.423Z,12.40
2024-04-12T02:36:17.972Z,12.90
2024-04-12T02:38:51.804Z,12.60
2024-04-12T02:41:21.194Z,12.80
2024-04-12T02:43:52.946Z,12.10
2024-04-12T02:46:22.240Z,12.50
2024-04-12T02:48:50.759Z,12.40
2024-04-12T02:51:20.018Z,13.40
2024-04-12T02:53:49.950Z,13.30
2024-04-12T02:56:29.864Z,14.20
2024-04-12T02:58:58.796Z,12.10
2024-04-12T03:01:27.259Z,12.40
2024-04-12T03:03:57.595Z,12.00
2024-04-12T03:06:27.886Z,11.30
2024-04-12T03:09:01.562Z,9.70
2024-04-12T03:11:38.421Z,11.00
2024-04-12T03:14:10.486Z,10.50
2024-04-12T03:16:43.677Z,10.90
2024-04-12T03:19:14.763Z,9.60
2024-04-12T03:21:42.712Z,10.50
2024-04-12T03:24:10.916Z,10.20
2024-04-12T03:26:39.629Z,10.80
2024-04-12T03:29:07.678Z,10.60
2024-04-12T03:31:42.396Z,10.00
2024-04-12T03:34:10.390Z,10.20
2024-04-12T03:36:39.997Z,10.30
2024-04-12T03:39:23.847Z,11.60
2024-04-12T03:42:05.406Z,11.90
2024-04-12T03:44:35.420Z,10.80
2024-04-12T03:47:12.925Z,12.30
2024-04-12T03:49:43.863Z,11.70
2024-04-12T03:52:14.880Z,11.40
2024-04-12T03:54:46.699Z,11.60
2024-04-12T03:57:15.970Z,12.10
2024-04-12T03:59:45.088Z,12.00
2024-04-12T04:02:15.194Z,12.00
2024-04-12T04:04:47.727Z,11.90
2024-04-12T04:07:18.712Z,12.00
2024-04-12T04:09:48.118Z,11.70
2024-04-12T04:12:17.118Z,11.80
2024-04-12T04:14:49.438Z,11.00
2024-04-12T04:17:19.342Z,11.80
2024-04-12T04:19:53.082Z,11.70
2024-04-12T04:25:10.486Z,12.50
2024-04-12T04:27:39.723Z,11.80
2024-04-12T04:30:08.524Z,9.70
2024-04-12T04:32:36.975Z,9.30
2024-04-12T04:35:10.691Z,9.00
2024-04-12T04:37:39.949Z,10.10
2024-04-12T04:40:21.363Z,9.60
2024-04-12T04:42:51.307Z,9.20
2024-04-12T04:45:20.703Z,9.00
2024-04-12T04:47:50.104Z,9.40
2024-04-12T04:50:20.305Z,10.00
2024-04-12T04:52:52.494Z,9.00
2024-04-12T04:55:20.874Z,10.00
2024-04-12T04:57:56.016Z,9.00
2024-04-12T05:00:25.120Z,10.50
2024-04-12T05:02:55.517Z,9.90
2024-04-12T05:05:27.006Z,10.10
2024-04-12T05:07:56.816Z,10.60
2024-04-12T05:10:25.907Z,10.80
2024-04-12T05:12:55.309Z,10.80
2024-04-12T05:15:53.026Z,10.80
2024-04-12T05:18:21.148Z,11.00
2024-04-12T05:20:49.949Z,10.90
2024-04-12T05:23:19.289Z,10.90
2024-04-12T05:25:48.074Z,10.60
2024-04-12T05:28:16.300Z,10.00
2024-04-12T05:30:47.986Z,10.30
2024-04-12T05:33:20.718Z,11.10
2024-04-12T05:35:49.150Z,10.90
2024-04-12T05:38:22.266Z,10.90
2024-04-12T05:40:54.541Z,10.30
2024-04-12T05:43:23.730Z,9.40
2024-04-12T05:45:52.713Z,9.40
2024-04-12T05:48:22.715Z,9.50
2024-04-12T05:50:55.000Z,8.40
2024-04-12T05:53:32.731Z,7.90
2024-04-12T05:56:21.210Z,7.50
2024-04-12T05:58:52.572Z,7.80
2024-04-12T06:01:21.104Z,7.30
2024-04-12T06:03:55.883Z,7.90
2024-04-12T06:06:26.145Z,7.70
2024-04-12T06:08:55.641Z,7.60
2024-04-12T06:11:26.125Z,7.40
2024-04-12T06:13:55.781Z,8.10
2024-04-12T06:16:24.597Z,7.70
2024-04-12T06:18:52.927Z,7.40
2024-04-12T06:21:20.858Z,7.60
2024-04-12T06:23:55.909Z,8.10
2024-04-12T06:26:23.891Z,7.80
2024-04-12T06:28:58.606Z,7.70
2024-04-12T06:31:35.241Z,7.30
2024-04-12T06:34:05.793Z,7.50
2024-04-12T06:36:35.553Z,7.50
2024-04-12T06:39:06.019Z,6.90
2024-04-12T06:41:34.403Z,6.90
2024-04-12T06:44:04.140Z,6.70
2024-04-12T06:46:33.729Z,7.00
2024-04-12T06:49:08.695Z,6.50
2024-04-12T06:51:45.161Z,5.90
2024-04-12T06:54:13.105Z,6.00
2024-04-12T06:56:41.820Z,5.70
2024-04-12T06:59:09.878Z,6.60
2024-04-12T07:01:37.707Z,6.00
2024-04-12T07:04:06.859Z,6.20
2024-04-12T07:06:34.992Z,5.60
2024-04-12T07:09:09.783Z,6.40
2024-04-12T07:11:41.054Z,6.40
2024-04-12T07:14:08.856Z,6.20
2024-04-12T07:16:37.045Z,5.90
2024-04-12T07:19:09.904Z,6.20
2024-04-12T07:21:37.662Z,6.40
2024-04-12T07:24:06.984Z,5.70
2024-04-12T07:26:37.535Z,5.70
2024-04-12T07:29:07.563Z,6.40
2024-04-12T07:31:37.433Z,6.30
2024-04-12T07:34:09.232Z,5.90
2024-04-12T07:36:38.460Z,5.80
2024-04-12T07:39:10.777Z,5.80
2024-04-12T07:41:45.119Z,5.30
2024-04-12T07:44:14.295Z,4.40
2024-04-12T07:46:53.651Z,5.10
2024-04-12T07:49:21.997Z,5.10
2024-04-12T07:51:50.604Z,5.00
2024-04-12T07:54:18.486Z,4.90
2024-04-12T07:57:08.596Z,4.90
2024-04-12T07:59:38.876Z,5.80
2024-04-12T08:02:10.116Z,5.00
2024-04-12T08:04:39.663Z,4.80
2024-04-12T08:07:07.900Z,4.70
2024-04-12T08:09:36.626Z,4.90
2024-04-12T08:12:34.995Z,4.70
2024-04-12T08:15:15.896Z,4.70
2024-04-12T08:17:50.345Z,4.60
2024-04-12T08:20:26.369Z,4.30
2024-04-12T08:22:54.208Z,4.80
2024-04-12T08:25:28.050Z,4.60
2024-04-12T08:27:56.125Z,4.00
2024-04-12T08:30:24.045Z,4.30
2024-04-12T08:32:52.909Z,5.00
2024-04-12T08:35:21.953Z,4.40
2024-04-12T08:37:54.872Z,4.50
2024-04-12T08:40:26.207Z,4.60
2024-04-12T08:43:10.060Z,4.40
2024-04-12T08:45:44.233Z,4.20
2024-04-12T08:48:13.622Z,4.50
2024-04-12T08:50:41.942Z,4.30
2024-04-12T08:53:18.661Z,4.30
2024-04-12T08:55:47.100Z,4.60
2024-04-12T08:58:22.398Z,4.30
2024-04-12T09:00:55.367Z,4.60
2024-04-12T09:03:27.876Z,4.60
2024-04-12T09:08:32.083Z,4.10
2024-04-12T09:11:05.083Z,4.60
2024-04-12T09:13:36.054Z,4.30
2024-04-12T09:16:08.061Z,4.50
2024-04-12T09:18:54.754Z,4.00
2024-04-12T09:21:37.145Z,4.30
2024-04-12T09:24:11.241Z,4.70
2024-04-12T09:26:56.319Z,4.40
2024-04-12T09:29:28.508Z,4.40
2024-04-12T09:32:16.733Z,4.50
2024-04-12T09:34:57.076Z,4.00
2024-04-12T09:37:30.106Z,4.40
2024-04-12T09:40:02.072Z,3.80
2024-04-12T09:42:46.948Z,4.10
2024-04-12T09:45:23.520Z,4.10
2024-04-12T09:48:13.108Z,4.50
2024-04-12T09:51:00.306Z,4.20
2024-04-12T09:53:47.031Z,4.10
2024-04-12T09:56:35.426Z,3.80
2024-04-12T09:59:33.579Z,4.20
2024-04-12T10:02:23.080Z,4.20
2024-04-12T10:05:10.934Z,4.10
2024-04-12T10:07:58.412Z,4.10
2024-04-12T10:10:47.433Z,4.40
2024-04-12T10:13:34.773Z,4.50
2024-04-12T10:16:22.177Z,4.00
2024-04-12T10:19:18.194Z,4.50
2024-04-12T10:22:05.091Z,4.00
2024-04-12T10:24:52.113Z,4.20
2024-04-12T10:27:39.052Z,4.20
2024-04-12T10:30:28.872Z,4.30
2024-04-12T10:33:21.616Z,4.30
2024-04-12T10:36:08.900Z,4.10
2024-04-12T10:38:45.315Z,4.00
2024-04-12T10:41:16.377Z,3.90
2024-04-12T10:43:44.423Z,4.00
2024-04-12T10:46:12.802Z,3.70
2024-04-12T10:48:44.638Z,4.50
2024-04-12T10:51:17.883Z,3.70
2024-04-12T10:53:50.473Z,3.80
2024-04-12T10:56:21.569Z,4.00
2024-04-12T10:58:57.611Z,4.20
2024-04-12T11:01:27.683Z,4.10
2024-04-12T11:03:59.838Z,3.60
2024-04-12T11:06:33.067Z,4.20
2024-04-12T11:09:06.073Z,3.80
2024-04-12T11:11:40.232Z,3.60
2024-04-12T11:14:18.595Z,4.90
2024-04-12T11:17:06.114Z,4.70
2024-04-12T11:19:56.451Z,4.00
2024-04-12T11:22:44.482Z,3.70
2024-04-12T11:25:34.184Z,3.90
2024-04-12T11:28:24.656Z,3.90
2024-04-12T11:31:15.968Z,3.30
2024-04-12T11:33:48.602Z,4.00
2024-04-12T11:36:23.323Z,3.50
2024-04-12T11:38:54.907Z,3.90
2024-04-12T11:41:25.942Z,3.90
2024-04-12T11:43:55.956Z,4.30
2024-04-12T11:46:24.974Z,3.80
2024-04-12T11:48:57.641Z,4.50
2024-04-12T11:51:38.524Z,4.30
2024-04-12T11:54:06.931Z,4.30
2024-04-12T11:56:35.208Z,4.10
2024-04-12T11:59:03.406Z,4.20
2024-04-12T12:01:31.317Z,4.20
2024-04-12T12:03:59.724Z,4.20
2024-04-12T12:06:27.664Z,3.90
2024-04-12T12:08:58.660Z,4.10
2024-04-12T12:11:29.148Z,4.10
2024-04-12T12:13:57.098Z,4.00
2024-04-12T12:16:26.922Z,3.70
2024-04-12T12:18:55.019Z,3.80
2024-04-12T12:21:24.201Z,4.10
2024-04-12T12:23:52.245Z,4.10
2024-04-12T12:26:22.520Z,4.00
2024-04-12T12:28:51.484Z,4.10
2024-04-12T12:31:19.635Z,4.30
2024-04-12T12:33:48.897Z,4.00
2024-04-12T12:36:18.318Z,4.50
2024-04-12T12:38:46.339Z,4.40
2024-04-12T12:41:15.635Z,3.90
2024-04-12T12:43:48.490Z,4.30
2024-04-12T12:46:16.825Z,4.40
2024-04-12T12:48:44.839Z,3.80
2024-04-12T12:51:13.787Z,4.20
2024-04-12T12:53:42.465Z,4.20
2024-04-12T12:56:10.605Z,4.80
2024-04-12T12:58:41.778Z,4.10
2024-04-12T13:01:13.957Z,4.50
2024-04-12T13:03:45.082Z,4.30
2024-04-12T13:06:22.257Z,4.50
2024-04-12T13:08:50.344Z,3.90
2024-04-12T13:11:26.126Z,3.80
2024-04-12T13:13:54.579Z,4.60
2024-04-12T13:16:25.611Z,4.60
2024-04-12T13:18:54.624Z,4.10
2024-04-12T13:21:24.986Z,4.40
2024-04-12T13:23:55.008Z,4.00
2024-04-12T13:26:27.926Z,3.90
2024-04-12T13:28:55.808Z,4.20
2024-04-12T13:31:25.071Z,4.70
2024-04-12T13:33:57.285Z,4.20
2024-04-12T13:36:25.736Z,4.20
2024-04-12T13:38:54.836Z,4.00
2024-04-12T13:41:22.781Z,3.90
2024-04-12T13:43:51.817Z,4.20
2024-04-12T13:46:41.896Z,3.70
2024-04-12T13:49:30.835Z,4.20
2024-04-12T13:52:01.317Z,3.80
2024-04-12T13:54:29.332Z,4.00
2024-04-12T13:56:57.404Z,4.20
2024-04-12T13:59:25.802Z,4.10
2024-04-12T14:01:54.062Z,3.80
2024-04-12T14:04:28.216Z,4.10
2024-04-12T14:06:56.354Z,3.60
2024-04-12T14:09:25.108Z,3.80
2024-04-12T14:11:53.375Z,3.50
2024-04-12T14:14:21.654Z,3.50
2024-04-12T14:16:52.357Z,4.60
2024-04-12T14:19:21.722Z,3.60
2024-04-12T14:21:54.143Z,3.60
2024-04-12T14:24:41.798Z,3.80
2024-04-12T14:27:10.184Z,3.70
2024-04-12T14:29:38.298Z,3.70
2024-04-12T14:32:07.453Z,3.80
2024-04-12T14:34:37.008Z,3.70
2024-04-12T14:37:06.073Z,4.10
2024-04-12T14:39:34.619Z,3.50
2024-04-12T14:42:03.911Z,3.80
2024-04-12T14:44:40.166Z,3.80
2024-04-12T14:47:09.326Z,3.90
2024-04-12T14:49:37.564Z,3.80
2024-04-12T14:52:12.370Z,4.30
2024-04-12T14:54:40.921Z,3.60
2024-04-12T14:57:08.967Z,3.40
2024-04-12T14:59:38.333Z,3.90
2024-04-12T15:02:07.128Z,3.80
2024-04-12T15:04:53.834Z,4.00
2024-04-12T15:07:40.201Z,4.30
2024-04-12T15:10:26.946Z,4.20
2024-04-12T15:13:13.663Z,4.20
2024-04-12T15:15:59.980Z,4.20
2024-04-12T15:18:46.413Z,4.00
2024-04-12T15:21:32.947Z,3.60
2024-04-12T15:24:19.624Z,3.80
2024-04-12T15:27:06.140Z,3.90
2024-04-12T15:29:52.573Z,3.70
2024-04-12T15:32:39.195Z,4.20
2024-04-12T15:35:26.294Z,3.80
2024-04-12T15:38:12.784Z,3.60
2024-04-12T15:40:59.283Z,5.20
2024-04-12T15:43:45.536Z,4.10
2024-04-12T15:46:31.947Z,4.00
2024-04-12T15:49:00.785Z,3.70
2024-04-12T15:51:29.733Z,3.80
2024-04-12T15:54:00.502Z,3.60
2024-04-12T15:56:29.202Z,3.50
2024-04-12T15:59:15.686Z,3.80
2024-04-12T16:02:02.028Z,3.40
2024-04-12T16:04:49.279Z,3.40
2024-04-12T16:07:35.751Z,3.40
2024-04-12T16:10:22.584Z,3.80
2024-04-12T16:12:50.567Z,3.40
2024-04-12T16:15:18.848Z,3.80
2024-04-12T16:17:47.085Z,3.60
2024-04-12T16:20:15.233Z,4.10
2024-04-12T16:22:43.125Z,4.10
2024-04-12T16:25:11.316Z,3.90
2024-04-12T16:27:40.131Z,4.00
2024-04-12T16:30:07.966Z,3.80
2024-04-12T16:32:36.062Z,3.60
2024-04-12T16:35:04.161Z,4.00
2024-04-12T16:37:32.149Z,4.30
2024-04-12T16:40:00.701Z,4.00
2024-04-12T16:42:28.652Z,5.10
2024-04-12T16:44:56.684Z,4.10
2024-04-12T16:47:25.122Z,4.80
2024-04-12T16:49:55.211Z,4.30
2024-04-12T16:52:22.952Z,4.60
2024-04-12T16:54:51.819Z,3.80
2024-04-12T16:57:21.112Z,4.50
2024-04-12T16:59:49.363Z,4.10
2024-04-12T17:02:17.355Z,3.80
2024-04-12T17:04:46.028Z,3.60
2024-04-12T17:07:14.001Z,3.70
2024-04-12T17:09:42.599Z,4.10
2024-04-12T17:12:10.677Z,4.30
2024-04-12T17:14:38.685Z,4.00
2024-04-12T17:17:06.903Z,4.90
2024-04-12T17:19:34.986Z,5.00
2024-04-12T17:22:03.006Z,5.10
2024-04-12T17:24:30.916Z,4.40
2024-04-12T17:26:58.777Z,4.10
2024-04-12T17:29:30.413Z,4.10
2024-04-12T17:31:59.429Z,3.80
2024-04-12T17:34:28.855Z,4.10
2024-04-12T17:36:56.982Z,4.10
2024-04-12T17:39:25.638Z,4.30
2024-04-12T17:41:54.330Z,4.10
2024-04-12T17:44:23.646Z,4.70
2024-04-12T17:46:52.664Z,4.30
2024-04-12T17:49:20.772Z,4.00
2024-04-12T17:51:49.178Z,3.80
2024-04-12T17:54:17.230Z,4.30
2024-04-12T17:56:45.183Z,4.40
2024-04-12T17:59:13.263Z,4.40
2024-04-12T18:01:41.858Z,3.90
2024-04-12T18:04:10.118Z,4.10
2024-04-12T18:06:40.568Z,5.20
2024-04-12T18:09:10.335Z,5.00
2024-04-12T18:11:38.250Z,4.50
2024-04-12T18:14:07.938Z,4.90
2024-04-12T18:16:36.080Z,4.80
2024-04-12T18:19:06.679Z,4.60
2024-04-12T18:21:34.942Z,4.90
2024-04-12T18:24:02.999Z,4.70
2024-04-12T18:26:30.914Z,4.60
2024-04-12T18:28:58.996Z,5.70
2024-04-12T18:31:27.060Z,5.80
2024-04-12T18:33:54.970Z,6.10
2024-04-12T18:36:25.307Z,6.40
2024-04-12T18:39:11.765Z,6.30
2024-04-12T18:42:00.541Z,6.20
2024-04-12T18:44:47.807Z,6.40
2024-04-12T18:47:15.931Z,6.00
2024-04-12T18:49:45.185Z,6.10
2024-04-12T18:52:14.504Z,6.10
2024-04-12T18:54:42.406Z,6.40
2024-04-12T18:57:10.305Z,5.90
2024-04-12T18:59:38.507Z,5.70
2024-04-12T19:02:07.855Z,6.00
2024-04-12T19:04:35.801Z,6.70
2024-04-12T19:07:03.943Z,6.00
2024-04-12T19:09:32.378Z,6.10
2024-04-12T19:12:00.391Z,6.10
2024-04-12T19:14:28.463Z,6.00
2024-04-12T19:16:59.118Z,5.70
2024-04-12T19:19:27.206Z,5.90
2024-04-12T19:21:56.392Z,5.70
2024-04-12T19:24:24.552Z,6.20
2024-04-12T19:26:54.264Z,6.20
2024-04-12T19:29:25.212Z,6.10
2024-04-12T19:31:54.354Z,6.00
2024-04-12T19:34:22.302Z,6.40
2024-04-12T19:36:50.195Z,6.60
2024-04-12T19:39:19.119Z,6.70
2024-04-12T19:41:47.339Z,7.00
2024-04-12T19:44:15.810Z,6.20
2024-04-12T19:46:43.643Z,6.30
2024-04-12T19:49:11.754Z,6.70
2024-04-12T19:51:40.053Z,6.90
2024-04-12T19:54:08.260Z,6.60
2024-04-12T19:56:36.072Z,6.20
2024-04-12T19:59:04.025Z,5.60
2024-04-12T20:01:32.315Z,5.90
2024-04-12T20:04:00.350Z,5.80
2024-04-12T20:06:28.816Z,6.50
2024-04-12T20:08:56.828Z,6.20
2024-04-12T20:11:27.141Z,6.00
2024-04-12T20:13:55.066Z,5.90
2024-04-12T20:16:23.232Z,5.90
2024-04-12T20:18:51.346Z,5.90
2024-04-12T20:21:19.995Z,6.00
2024-04-12T20:23:49.932Z,6.00
2024-04-12T20:26:19.077Z,6.10
2024-04-12T20:28:49.641Z,6.20
2024-04-12T20:31:21.933Z,6.20
2024-04-12T20:34:03.730Z,6.20
2024-04-12T20:36:41.931Z,7.60
2024-04-12T20:39:23.111Z,7.20
2024-04-12T20:41:55.554Z,7.00
2024-04-12T20:44:26.724Z,6.30
2024-04-12T20:46:55.811Z,6.40
2024-04-12T20:49:23.866Z,5.90
2024-04-12T20:51:55.157Z,6.50
2024-04-12T20:54:23.359Z,5.60
2024-04-12T20:56:51.304Z,6.30
2024-04-12T20:59:20.629Z,5.70
2024-04-12T21:01:52.171Z,5.60
2024-04-12T21:04:21.395Z,6.00
2024-04-12T21:06:54.713Z,5.80
2024-04-12T21:09:22.941Z,5.60
2024-04-12T21:11:52.595Z,5.70
2024-04-12T21:14:20.922Z,5.60
2024-04-12T21:16:48.961Z,5.70
2024-04-12T21:19:17.994Z,5.40
2024-04-12T21:21:45.844Z,5.30
2024-04-12T21:24:16.651Z,5.40
2024-04-12T21:26:44.782Z,6.00
2024-04-12T21:29:12.627Z,5.60
2024-04-12T21:31:41.210Z,5.90
2024-04-12T21:34:12.915Z,6.30
2024-04-12T21:36:41.703Z,7.00
2024-04-12T21:39:09.759Z,7.00
2024-04-12T21:41:37.679Z,6.70
2024-04-12T21:44:07.382Z,7.00
2024-04-12T21:46:35.367Z,6.80
2024-04-12T21:49:03.176Z,7.90
2024-04-12T21:51:32.420Z,6.40
2024-04-12T21:54:01.353Z,7.00
2024-04-12T21:56:29.473Z,6.80
2024-04-12T21:58:59.671Z,6.70
2024-04-12T22:01:27.943Z,6.90
2024-04-12T22:03:55.815Z,6.10
2024-04-12T22:06:23.757Z,6.00
2024-04-12T22:08:55.375Z,5.30
2024-04-12T22:11:24.713Z,5.40
2024-04-12T22:13:52.875Z,5.30
2024-04-12T22:16:20.812Z,5.00
2024-04-12T22:18:48.656Z,5.50
2024-04-12T22:21:17.789Z,5.30
2024-04-12T22:23:49.166Z,5.30
2024-04-12T22:26:23.007Z,5.30
2024-04-12T22:28:51.521Z,5.80
2024-04-12T22:31:22.381Z,5.30
2024-04-12T22:33:54.622Z,5.60
2024-04-12T22:36:23.558Z,5.30
2024-04-12T22:38:52.327Z,5.90
2024-04-12T22:41:20.580Z,5.60
2024-04-12T22:43:48.635Z,5.50
2024-04-12T22:46:16.758Z,5.60
2024-04-12T22:48:46.116Z,5.60
2024-04-12T22:51:24.920Z,6.10
2024-04-12T22:53:53.148Z,5.50
2024-04-12T22:56:25.360Z,5.40
2024-04-12T22:58:58.216Z,5.30
2024-04-12T23:01:29.500Z,5.30
2024-04-12T23:03:58.253Z,5.60
2024-04-12T23:06:27.212Z,5.40
2024-04-12T23:08:55.348Z,5.50
2024-04-12T23:11:23.390Z,5.50
2024-04-12T23:13:51.475Z,5.00
2024-04-12T23:16:19.939Z,5.00
2024-04-12T23:18:50.581Z,5.30
2024-04-12T23:21:18.494Z,5.30
2024-04-12T23:23:49.004Z,5.30
2024-04-12T23:26:16.742Z,5.00
2024-04-12T23:28:44.821Z,4.80
2024-04-12T23:31:12.889Z,4.90
2024-04-12T23:33:40.937Z,5.00
2024-04-12T23:36:08.888Z,5.10
2024-04-12T23:38:37.035Z,5.40
2024-04-12T23:41:05.012Z,5.00
2024-04-12T23:43:32.844Z,5.40
2024-04-12T23:46:00.715Z,5.20
2024-04-12T23:48:28.686Z,4.90
2024-04-12T23:50:56.766Z,5.50
2024-04-12T23:53:24.578Z,5.10
2024-04-12T23:55:52.452Z,5.10
2024-04-12T23:58:20.191Z,5.30
